createdAt,value
2023-01-06T00:02:29.013Z,100646.63
2023-01-06T00:05:31.577Z,100654.88
2023-01-06T00:08:34.676Z,100657.91
2023-01-06T00:11:37.006Z,100665.31
2023-01-06T00:14:38.675Z,100672.66
2023-01-06T00:17:40.734Z,100675.88
2023-01-06T00:20:42.423Z,100681.63
2023-01-06T00:23:44.212Z,100676.53
2023-01-06T00:26:45.887Z,100675.34
2023-01-06T00:29:49.687Z,100676.53
2023-01-06T00:32:51.517Z,100679.53
2023-01-06T00:35:58.276Z,100687.31
2023-01-06T00:38:59.960Z,100686.78
2023-01-06T00:42:04.965Z,100692.66
2023-01-06T00:45:07.071Z,100699.13
2023-01-06T00:48:08.961Z,100700.22
2023-01-06T00:51:10.616Z,100705.16
2023-01-06T00:54:14.224Z,100705.91
2023-01-06T00:57:15.925Z,100718.50
2023-01-06T01:00:17.694Z,100723.22
2023-01-06T01:03:19.423Z,100718.44
2023-01-06T01:06:21.253Z,100727.97
2023-01-06T01:09:28.843Z,100741.13
2023-01-06T01:12:30.368Z,100743.34
2023-01-06T01:15:32.458Z,100747.25
2023-01-06T01:18:35.065Z,100745.56
2023-01-06T01:21:36.765Z,100755.53
2023-01-06T01:24:39.276Z,100738.78
2023-01-06T01:27:41.755Z,100750.75
2023-01-06T01:30:43.419Z,100755.66
2023-01-06T01:33:45.159Z,100771.38
2023-01-06T01:36:48.711Z,100781.72
2023-01-06T01:39:50.519Z,100790.53
2023-01-06T01:42:52.295Z,100787.00
2023-01-06T01:45:55.902Z,100795.53
2023-01-06T01:49:02.236Z,100804.59
2023-01-06T01:52:04.215Z,100806.63
2023-01-06T01:55:08.076Z,100804.13
2023-01-06T01:58:20.480Z,100790.31
2023-01-06T02:01:22.341Z,100794.06
2023-01-06T02:04:27.375Z,100797.97
2023-01-06T02:07:30.163Z,100796.19
2023-01-06T02:10:31.939Z,100794.75
2023-01-06T02:13:35.905Z,100797.31
2023-01-06T02:17:00.411Z,100797.81
2023-01-06T02:20:17.311Z,100793.28
2023-01-06T02:23:37.783Z,100785.09
2023-01-06T02:27:01.124Z,100786.19
2023-01-06T02:30:05.830Z,100786.19
2023-01-06T02:33:10.108Z,100794.38
2023-01-06T02:36:25.234Z,100800.19
2023-01-06T02:39:43.121Z,100799.94
2023-01-06T02:42:44.715Z,100807.16
2023-01-06T02:45:46.378Z,100812.16
2023-01-06T02:49:00.077Z,100821.34
2023-01-06T02:52:36.900Z,100818.88
2023-01-06T02:55:43.661Z,100818.25
2023-01-06T02:59:02.563Z,100828.94
2023-01-06T03:02:06.362Z,100827.25
2023-01-06T03:05:12.204Z,100833.56
2023-01-06T03:08:20.151Z,100831.53
2023-01-06T03:11:22.180Z,100833.94
2023-01-06T03:14:29.603Z,100830.28
2023-01-06T03:17:31.481Z,100833.28
2023-01-06T03:20:33.286Z,100836.41
2023-01-06T03:23:37.849Z,100847.56
2023-01-06T03:26:41.719Z,100849.84
2023-01-06T03:29:43.693Z,100845.94
2023-01-06T03:33:12.544Z,100845.62
2023-01-06T03:36:27.112Z,100856.22
2023-01-06T03:39:34.408Z,100855.13
2023-01-06T03:42:54.472Z,100865.09
2023-01-06T03:46:25.239Z,100858.75
2023-01-06T03:49:53.757Z,100868.00
2023-01-06T03:53:15.357Z,100868.63
2023-01-06T03:56:26.096Z,100876.88
2023-01-06T03:59:32.455Z,100881.16
2023-01-06T04:02:37.396Z,100887.59
2023-01-06T04:05:39.527Z,100884.03
2023-01-06T04:08:41.224Z,100890.31
2023-01-06T04:12:01.664Z,100894.69
2023-01-06T04:15:03.457Z,100886.78
2023-01-06T04:18:05.198Z,100880.03
2023-01-06T04:21:06.877Z,100870.09
2023-01-06T04:24:08.638Z,100869.97
2023-01-06T04:27:10.343Z,100868.69
2023-01-06T04:30:12.350Z,100847.56
2023-01-06T04:33:14.026Z,100849.06
2023-01-06T04:36:16.088Z,100845.59
2023-01-06T04:39:17.746Z,100848.25
2023-01-06T04:42:19.475Z,100855.81
2023-01-06T04:45:22.513Z,100864.09
2023-01-06T04:48:24.292Z,100872.94
2023-01-06T04:51:25.966Z,100882.56
2023-01-06T04:54:27.859Z,100880.94
2023-01-06T04:57:29.534Z,100878.56
2023-01-06T05:00:31.220Z,100878.75
2023-01-06T05:03:33.235Z,100889.88
2023-01-06T05:06:35.451Z,100896.91
2023-01-06T05:09:37.107Z,100894.63
2023-01-06T05:12:38.819Z,100899.97
2023-01-06T05:15:40.507Z,100894.63
2023-01-06T05:18:42.239Z,100885.84
2023-01-06T05:21:43.891Z,100885.66
2023-01-06T05:24:45.679Z,100881.13
2023-01-06T05:27:47.382Z,100879.12
2023-01-06T05:30:49.318Z,100888.25
2023-01-06T05:33:50.995Z,100883.97
2023-01-06T05:36:52.648Z,100884.69
2023-01-06T05:39:54.343Z,100897.81
2023-01-06T05:42:57.588Z,100897.00
2023-01-06T05:46:00.456Z,100911.63
2023-01-06T05:49:02.322Z,100925.44
2023-01-06T05:52:04.092Z,100941.44
2023-01-06T05:55:06.407Z,100946.53
2023-01-06T05:58:08.078Z,100956.56
2023-01-06T06:01:20.102Z,100959.06
2023-01-06T06:04:21.796Z,100966.69
2023-01-06T06:07:23.526Z,100953.47
2023-01-06T06:10:25.201Z,100958.84
2023-01-06T06:13:26.869Z,100961.53
2023-01-06T06:16:29.027Z,100962.31
2023-01-06T06:19:30.827Z,100954.56
2023-01-06T06:22:32.499Z,100956.38
2023-01-06T06:25:34.169Z,100962.94
2023-01-06T06:28:37.595Z,100963.03
2023-01-06T06:31:39.284Z,100968.00
2023-01-06T06:34:41.004Z,100961.41
2023-01-06T06:37:42.644Z,100970.19
2023-01-06T06:40:45.096Z,100967.78
2023-01-06T06:43:48.341Z,100979.09
2023-01-06T06:46:50.160Z,100972.06
2023-01-06T06:49:51.890Z,100972.78
2023-01-06T06:52:55.182Z,100984.19
2023-01-06T06:55:58.253Z,100986.84
2023-01-06T06:58:59.936Z,100988.44
2023-01-06T07:02:01.767Z,100994.13
2023-01-06T07:05:03.663Z,100998.75
2023-01-06T07:08:05.435Z,100997.22
2023-01-06T07:11:07.085Z,101005.75
2023-01-06T07:14:08.784Z,101013.37
2023-01-06T07:17:10.431Z,101020.25
2023-01-06T07:20:12.197Z,101028.31
2023-01-06T07:23:13.834Z,101040.69
2023-01-06T07:26:15.871Z,101050.63
2023-01-06T07:29:17.620Z,101049.41
2023-01-06T07:32:19.298Z,101054.78
2023-01-06T07:35:21.082Z,101055.66
2023-01-06T07:38:23.833Z,101044.75
2023-01-06T07:41:25.479Z,101046.59
2023-01-06T07:44:27.158Z,101057.81
2023-01-06T07:47:28.855Z,101066.81
2023-01-06T07:50:31.544Z,101075.28
2023-01-06T07:53:33.218Z,101069.47
2023-01-06T07:56:34.941Z,101081.41
2023-01-06T07:59:36.605Z,101077.03
2023-01-06T08:02:38.386Z,101073.63
2023-01-06T08:05:44.005Z,101081.13
2023-01-06T08:08:45.664Z,101075.16
2023-01-06T08:11:47.324Z,101093.63
2023-01-06T08:14:49.052Z,101096.41
2023-01-06T08:17:54.578Z,101100.19
2023-01-06T08:21:04.043Z,101109.47
2023-01-06T08:24:06.088Z,101110.44
2023-01-06T08:27:07.736Z,101116.03
2023-01-06T08:30:09.931Z,101115.00
2023-01-06T08:33:11.604Z,101110.03
2023-01-06T08:36:16.693Z,101112.81
2023-01-06T08:39:18.852Z,101110.66
2023-01-06T08:42:20.541Z,101113.47
2023-01-06T08:45:22.240Z,101113.28
2023-01-06T08:48:23.991Z,101117.06
2023-01-06T08:51:27.610Z,101109.03
2023-01-06T08:54:29.878Z,101112.06
2023-01-06T08:57:31.588Z,101107.25
2023-01-06T09:00:33.423Z,101112.59
2023-01-06T09:03:35.070Z,101111.66
2023-01-06T09:06:37.572Z,101105.47
2023-01-06T09:09:39.274Z,101111.66
2023-01-06T09:12:41.021Z,101112.19
2023-01-06T09:15:43.512Z,101099.53
2023-01-06T09:18:49.784Z,101092.91
2023-01-06T09:21:51.913Z,101096.25
2023-01-06T09:24:53.570Z,101102.94
2023-01-06T09:27:55.362Z,101115.91
2023-01-06T09:30:57.176Z,101108.78
2023-01-06T09:33:58.903Z,101123.44
2023-01-06T09:37:00.557Z,101125.34
2023-01-06T09:40:03.021Z,101127.22
2023-01-06T09:43:10.783Z,101126.97
2023-01-06T09:46:16.515Z,101129.09
2023-01-06T09:49:31.366Z,101128.81
2023-01-06T09:53:11.617Z,101115.75
2023-01-06T09:56:16.860Z,101115.19
2023-01-06T10:00:11.027Z,101119.50
2023-01-06T10:03:19.064Z,101123.19
2023-01-06T10:06:31.125Z,101114.34
2023-01-06T10:09:41.607Z,101117.25
2023-01-06T10:13:16.480Z,101111.87
2023-01-06T10:16:56.358Z,101116.81
2023-01-06T10:20:04.025Z,101119.09
2023-01-06T10:23:32.327Z,101111.37
2023-01-06T10:26:45.055Z,101109.94
2023-01-06T10:29:48.827Z,101110.56
2023-01-06T10:32:51.119Z,101116.34
2023-01-06T10:35:55.188Z,101121.31
2023-01-06T10:38:58.016Z,101125.00
2023-01-06T10:42:43.770Z,101118.59
2023-01-06T10:45:47.937Z,101106.50
2023-01-06T10:48:49.667Z,101112.09
2023-01-06T10:51:59.896Z,101107.97
2023-01-06T10:55:05.405Z,101113.81
2023-01-06T10:58:38.053Z,101107.16
2023-01-06T11:01:55.899Z,101113.25
2023-01-06T11:05:01.438Z,101113.09
2023-01-06T11:08:14.952Z,101105.66
2023-01-06T11:11:28.211Z,101111.97
2023-01-06T11:14:32.811Z,101110.03
2023-01-06T11:17:34.645Z,101107.72
2023-01-06T11:20:36.348Z,101101.94
2023-01-06T11:23:42.949Z,101096.06
2023-01-06T11:26:50.244Z,101094.87
2023-01-06T11:29:51.896Z,101097.00
2023-01-06T11:32:54.051Z,101101.47
2023-01-06T11:35:56.532Z,101098.63
2023-01-06T11:39:15.404Z,101095.44
2023-01-06T11:42:17.281Z,101094.97
2023-01-06T11:46:00.410Z,101093.66
2023-01-06T11:49:06.909Z,101084.00
2023-01-06T11:52:31.293Z,101083.84
2023-01-06T11:55:32.976Z,101088.00
2023-01-06T11:58:37.537Z,101076.72
2023-01-06T12:01:49.400Z,101081.53
2023-01-06T12:04:53.128Z,101081.28
2023-01-06T12:07:57.867Z,101077.13
2023-01-06T12:11:44.384Z,101073.31
2023-01-06T12:14:46.622Z,101076.31
2023-01-06T12:17:53.921Z,101079.00
2023-01-06T12:20:58.243Z,101077.78
2023-01-06T12:24:04.936Z,101080.94
2023-01-06T12:27:07.623Z,101080.81
2023-01-06T12:30:17.731Z,101070.16
2023-01-06T12:33:27.702Z,101071.81
2023-01-06T12:36:42.284Z,101072.50
2023-01-06T12:39:58.277Z,101066.72
2023-01-06T12:43:20.299Z,101065.06
2023-01-06T12:46:30.500Z,101059.06
2023-01-06T12:49:41.963Z,101060.41
2023-01-06T12:53:07.380Z,101060.31
2023-01-06T12:56:29.970Z,101048.03
2023-01-06T12:59:57.375Z,101047.25
2023-01-06T13:03:17.415Z,101053.47
2023-01-06T13:06:18.996Z,101047.50
2023-01-06T13:09:31.232Z,101038.66
2023-01-06T13:12:46.851Z,101042.22
2023-01-06T13:15:49.137Z,101038.81
2023-01-06T13:19:45.914Z,101052.19
2023-01-06T13:23:10.747Z,101051.53
2023-01-06T13:26:26.618Z,101054.59
2023-01-06T13:29:53.893Z,101051.31
2023-01-06T13:33:43.181Z,101048.97
2023-01-06T13:37:22.144Z,101033.84
2023-01-06T13:40:29.710Z,101045.91
2023-01-06T13:43:33.713Z,101048.16
2023-01-06T13:46:36.168Z,101057.97
2023-01-06T13:49:39.080Z,101061.00
2023-01-06T13:52:42.021Z,101068.31
2023-01-06T13:55:43.950Z,101065.56
2023-01-06T13:58:50.909Z,101060.87
2023-01-06T14:01:53.299Z,101067.81
2023-01-06T14:04:56.233Z,101068.13
2023-01-06T14:08:01.111Z,101070.06
2023-01-06T14:11:28.742Z,101081.56
2023-01-06T14:14:38.427Z,101081.00
2023-01-06T14:17:42.527Z,101080.38
2023-01-06T14:20:44.257Z,101078.75
2023-01-06T14:23:51.709Z,101074.97
2023-01-06T14:27:01.411Z,101080.87
2023-01-06T14:30:20.466Z,101082.09
2023-01-06T14:33:44.242Z,101086.97
2023-01-06T14:36:50.103Z,101085.84
2023-01-06T14:39:55.000Z,101081.91
2023-01-06T14:43:00.083Z,101088.00
2023-01-06T14:46:14.645Z,101086.16
2023-01-06T14:49:21.746Z,101085.41
2023-01-06T14:52:33.298Z,101085.75
2023-01-06T14:55:38.551Z,101078.59
2023-01-06T14:58:40.188Z,101080.81
2023-01-06T15:01:44.458Z,101077.66
2023-01-06T15:04:48.179Z,101090.34
2023-01-06T15:08:04.805Z,101078.19
2023-01-06T15:11:35.635Z,101072.59
2023-01-06T15:14:37.276Z,101064.37
2023-01-06T15:17:40.292Z,101060.16
2023-01-06T15:20:46.072Z,101071.41
2023-01-06T15:23:51.885Z,101069.47
2023-01-06T15:26:56.068Z,101071.31
2023-01-06T15:29:58.471Z,101065.41
2023-01-06T15:33:01.349Z,101072.00
2023-01-06T15:36:03.824Z,101064.84
2023-01-06T15:39:07.008Z,101068.63
2023-01-06T15:42:12.391Z,101069.88
2023-01-06T15:45:24.302Z,101071.75
2023-01-06T15:48:29.831Z,101068.53
2023-01-06T15:51:31.582Z,101077.94
2023-01-06T15:54:37.358Z,101069.53
2023-01-06T15:57:40.009Z,101070.84
2023-01-06T16:00:48.648Z,101071.53
2023-01-06T16:03:51.988Z,101058.41
2023-01-06T16:06:53.673Z,101064.25
2023-01-06T16:09:55.345Z,101073.34
2023-01-06T16:13:26.681Z,101077.22
2023-01-06T16:16:42.516Z,101074.53
2023-01-06T16:19:50.702Z,101083.09
2023-01-06T16:22:55.223Z,101082.75
2023-01-06T16:26:07.220Z,101088.41
2023-01-06T16:29:38.616Z,101093.53
2023-01-06T16:32:42.161Z,101088.09
2023-01-06T16:35:43.994Z,101084.59
2023-01-06T16:38:45.736Z,101093.34
2023-01-06T16:41:59.480Z,101094.28
2023-01-06T16:45:05.805Z,101095.81
2023-01-06T16:48:07.691Z,101104.56
2023-01-06T16:51:18.111Z,101091.69
2023-01-06T16:54:20.937Z,101097.97
2023-01-06T16:57:23.464Z,101097.97
2023-01-06T17:00:25.178Z,101101.66
2023-01-06T17:03:35.095Z,101100.78
2023-01-06T17:06:38.054Z,101108.00
2023-01-06T17:09:40.580Z,101110.12
2023-01-06T17:13:00.891Z,101115.56
2023-01-06T17:16:14.817Z,101121.00
2023-01-06T17:19:22.329Z,101113.78
2023-01-06T17:22:30.397Z,101115.94
2023-01-06T17:25:32.171Z,101116.19
2023-01-06T17:28:33.929Z,101109.53
2023-01-06T17:31:40.884Z,101112.69
2023-01-06T17:34:42.676Z,101108.81
2023-01-06T17:37:44.439Z,101098.81
2023-01-06T17:40:46.210Z,101107.91
2023-01-06T17:43:48.037Z,101103.91
2023-01-06T17:46:50.058Z,101108.03
2023-01-06T17:49:57.129Z,101109.44
2023-01-06T17:53:31.310Z,101111.69
2023-01-06T17:56:32.995Z,101115.78
2023-01-06T17:59:34.629Z,101104.03
2023-01-06T18:02:43.195Z,101104.59
2023-01-06T18:05:45.162Z,101105.78
2023-01-06T18:08:49.412Z,101109.34
2023-01-06T18:11:53.160Z,101102.56
2023-01-06T18:14:55.866Z,101096.28
2023-01-06T18:17:58.175Z,101094.84
2023-01-06T18:21:05.528Z,101104.25
2023-01-06T18:24:17.714Z,101110.53
2023-01-06T18:27:25.190Z,101116.97
2023-01-06T18:30:28.665Z,101117.19
2023-01-06T18:33:30.645Z,101127.84
2023-01-06T18:36:32.335Z,101129.78
2023-01-06T18:39:48.867Z,101131.69
2023-01-06T18:42:52.744Z,101125.31
2023-01-06T18:46:00.470Z,101128.81
2023-01-06T18:49:02.192Z,101132.25
2023-01-06T18:52:26.683Z,101134.41
2023-01-06T18:55:36.115Z,101128.78
2023-01-06T18:58:57.244Z,101127.44
2023-01-06T19:01:59.343Z,101125.75
2023-01-06T19:05:01.225Z,101130.53
2023-01-06T19:08:27.007Z,101119.84
2023-01-06T19:11:35.094Z,101118.41
2023-01-06T19:14:42.644Z,101123.22
2023-01-06T19:17:45.470Z,101123.66
2023-01-06T19:20:47.431Z,101121.25
2023-01-06T19:23:49.709Z,101120.81
2023-01-06T19:26:51.504Z,101113.12
2023-01-06T19:29:56.032Z,101098.34
2023-01-06T19:33:42.820Z,101119.75
2023-01-06T19:36:48.188Z,101122.75
2023-01-06T19:39:56.282Z,101127.22
2023-01-06T19:43:10.894Z,101110.50
2023-01-06T19:46:26.095Z,101117.91
2023-01-06T19:49:40.186Z,101122.41
2023-01-06T19:52:42.028Z,101121.37
2023-01-06T19:55:44.264Z,101112.47
2023-01-06T19:58:59.090Z,101106.94
2023-01-06T20:02:10.220Z,101097.66
2023-01-06T20:05:12.209Z,101091.13
2023-01-06T20:08:14.056Z,101087.31
2023-01-06T20:11:16.877Z,101092.66
2023-01-06T20:14:19.780Z,101096.06
2023-01-06T20:17:21.547Z,101102.50
2023-01-06T20:20:23.435Z,101103.31
2023-01-06T20:23:25.501Z,101100.78
2023-01-06T20:26:28.568Z,101105.97
2023-01-06T20:29:30.569Z,101102.94
2023-01-06T20:32:32.588Z,101099.53
2023-01-06T20:35:34.753Z,101103.19
2023-01-06T20:38:36.593Z,101096.50
2023-01-06T20:41:38.342Z,101081.22
2023-01-06T20:44:40.790Z,101079.78
2023-01-06T20:47:44.208Z,101083.56
2023-01-06T20:50:46.126Z,101081.03
2023-01-06T20:53:47.958Z,101084.16
2023-01-06T20:56:49.611Z,101081.22
2023-01-06T20:59:51.378Z,101067.44
2023-01-06T21:02:53.309Z,101070.03
2023-01-06T21:05:55.191Z,101076.75
2023-01-06T21:08:56.875Z,101080.87
2023-01-06T21:11:58.884Z,101062.19
2023-01-06T21:15:00.683Z,101074.06
2023-01-06T21:18:02.469Z,101086.88
2023-01-06T21:21:04.697Z,101085.31
2023-01-06T21:24:07.027Z,101082.62
2023-01-06T21:27:08.716Z,101088.25
2023-01-06T21:30:10.937Z,101092.66
2023-01-06T21:33:13.468Z,101091.28
2023-01-06T21:36:15.169Z,101102.81
2023-01-06T21:39:16.869Z,101090.00
2023-01-06T21:42:37.070Z,101090.78
2023-01-06T21:45:41.327Z,101091.56
2023-01-06T21:48:43.140Z,101099.16
2023-01-06T21:51:47.321Z,101080.13
2023-01-06T21:54:49.488Z,101078.88
2023-01-06T21:57:51.510Z,101090.22
2023-01-06T22:00:53.210Z,101076.09
2023-01-06T22:03:54.873Z,101076.47
2023-01-06T22:07:00.235Z,101074.97
2023-01-06T22:10:05.737Z,101081.53
2023-01-06T22:13:10.866Z,101079.34
2023-01-06T22:16:13.057Z,101080.00
2023-01-06T22:19:15.825Z,101079.00
2023-01-06T22:22:17.863Z,101082.56
2023-01-06T22:25:19.546Z,101081.56
2023-01-06T22:28:21.215Z,101078.88
2023-01-06T22:31:22.945Z,101085.31
2023-01-06T22:34:24.571Z,101083.84
2023-01-06T22:37:26.217Z,101077.34
2023-01-06T22:40:28.573Z,101069.69
2023-01-06T22:43:30.456Z,101060.28
2023-01-06T22:46:32.216Z,101065.75
2023-01-06T22:49:33.904Z,101057.59
2023-01-06T22:52:35.647Z,101064.44
2023-01-06T22:55:37.745Z,101094.81
2023-01-06T22:58:40.957Z,101092.47
2023-01-06T23:01:42.720Z,101086.44
2023-01-06T23:04:44.473Z,101075.69
2023-01-06T23:07:46.135Z,101081.75
2023-01-06T23:10:47.801Z,101074.53
2023-01-06T23:13:54.340Z,101064.69
2023-01-06T23:16:56.024Z,101070.69
2023-01-06T23:19:57.738Z,101059.94
2023-01-06T23:22:59.465Z,101060.69
2023-01-06T23:26:06.718Z,101049.06
2023-01-06T23:29:09.526Z,101054.41
2023-01-06T23:32:11.158Z,101049.47
2023-01-06T23:35:12.791Z,101036.41
2023-01-06T23:38:14.432Z,101045.09
2023-01-06T23:41:21.360Z,101028.34
2023-01-06T23:44:23.051Z,101029.84
2023-01-06T23:47:24.767Z,101028.50
2023-01-06T23:50:26.405Z,101020.56
2023-01-06T23:53:29.131Z,101030.37
2023-01-06T23:56:32.961Z,101041.19
2023-01-06T23:59:34.636Z,101032.53
